createdAt,value
2022-08-19T00:00:08.433Z,27.0200
2022-08-19T00:00:19.636Z,27.0200
2022-08-19T00:00:30.862Z,27.0200
2022-08-19T00:00:42.033Z,27.0200
2022-08-19T00:00:53.233Z,27.0300
2022-08-19T00:01:04.439Z,27.0300
2022-08-19T00:01:15.482Z,27.0400
2022-08-19T00:01:32.592Z,27.0400
2022-08-19T00:01:53.445Z,27.0300
2022-08-19T00:02:04.962Z,27.0100
2022-08-19T00:02:16.113Z,27.0000
2022-08-19T00:02:27.312Z,27.0100
2022-08-19T00:02:38.512Z,27.0200
2022-08-19T00:02:55.743Z,27.0200
2022-08-19T00:03:07.044Z,27.0000
2022-08-19T00:03:18.191Z,27.0000
2022-08-19T00:03:29.244Z,27.0100
2022-08-19T00:03:40.323Z,27.0200
2022-08-19T00:03:51.383Z,27.0200
2022-08-19T00:04:02.465Z,27.0300
2022-08-19T00:04:13.556Z,27.0300
2022-08-19T00:04:24.774Z,27.0400
2022-08-19T00:04:36.037Z,27.0400
2022-08-19T00:04:47.187Z,27.0400
2022-08-19T00:04:58.409Z,27.0400
2022-08-19T00:05:09.434Z,27.0400
2022-08-19T00:05:20.502Z,27.0400
2022-08-19T00:05:31.633Z,27.0400
2022-08-19T00:05:42.693Z,27.0400
2022-08-19T00:05:53.742Z,27.0400
2022-08-19T00:06:04.803Z,27.0300
2022-08-19T00:06:15.864Z,27.0400
2022-08-19T00:06:29.912Z,27.0400
2022-08-19T00:06:41.072Z,27.0200
2022-08-19T00:06:52.272Z,27.0200
2022-08-19T00:07:03.482Z,27.0300
2022-08-19T00:07:14.673Z,27.0300
2022-08-19T00:07:25.881Z,27.0400
2022-08-19T00:07:36.913Z,27.0400
2022-08-19T00:07:47.978Z,27.0400
2022-08-19T00:07:59.153Z,27.0400
2022-08-19T00:08:10.192Z,27.0400
2022-08-19T00:08:21.233Z,27.0400
2022-08-19T00:08:32.433Z,27.0400
2022-08-19T00:08:43.632Z,27.0400
2022-08-19T00:08:54.704Z,27.0300
2022-08-19T00:09:05.770Z,27.0200
2022-08-19T00:09:16.913Z,27.0100
2022-08-19T00:09:28.113Z,27.0000
2022-08-19T00:09:39.314Z,27.0000
2022-08-19T00:09:50.399Z,26.9800
2022-08-19T00:10:01.463Z,26.9800
2022-08-19T00:10:12.562Z,26.9800
2022-08-19T00:10:23.622Z,26.9800
2022-08-19T00:10:34.674Z,26.9800
2022-08-19T00:10:45.878Z,26.9700
2022-08-19T00:10:56.947Z,26.9800
2022-08-19T00:11:08.143Z,26.9800
2022-08-19T00:11:25.474Z,26.9800
2022-08-19T00:11:37.312Z,26.9700
2022-08-19T00:11:48.372Z,26.9600
2022-08-19T00:11:59.472Z,26.9600
2022-08-19T00:12:10.543Z,26.9700
2022-08-19T00:12:21.593Z,26.9800
2022-08-19T00:12:32.632Z,26.9800
2022-08-19T00:12:46.956Z,26.9800
2022-08-19T00:13:00.794Z,26.9800
2022-08-19T00:13:11.985Z,26.9700
2022-08-19T00:13:23.183Z,26.9700
2022-08-19T00:13:34.222Z,26.9800
2022-08-19T00:13:45.273Z,26.9800
2022-08-19T00:13:56.544Z,26.9800
2022-08-19T00:14:07.619Z,26.9800
2022-08-19T00:14:18.822Z,26.9800
2022-08-19T00:14:29.902Z,26.9800
2022-08-19T00:14:40.954Z,26.9800
2022-08-19T00:14:52.183Z,26.9800
2022-08-19T00:15:03.262Z,26.9800
2022-08-19T00:15:14.314Z,26.9800
2022-08-19T00:15:25.422Z,26.9700
2022-08-19T00:15:36.625Z,26.9700
2022-08-19T00:15:47.823Z,26.9800
2022-08-19T00:15:59.024Z,26.9800
2022-08-19T00:16:10.222Z,26.9800
2022-08-19T00:16:25.242Z,26.9800
2022-08-19T00:16:38.383Z,26.9800
2022-08-19T00:16:49.448Z,26.9600
2022-08-19T00:17:00.513Z,26.9700
2022-08-19T00:17:11.663Z,26.9800
2022-08-19T00:17:22.703Z,26.9800
2022-08-19T00:17:33.752Z,26.9900
2022-08-19T00:17:44.944Z,26.9900
2022-08-19T00:17:56.012Z,26.9900
2022-08-19T00:18:07.063Z,26.9900
2022-08-19T00:18:18.153Z,26.9900
2022-08-19T00:18:29.233Z,26.9900
2022-08-19T00:18:40.303Z,26.9800
2022-08-19T00:18:51.503Z,26.9800
2022-08-19T00:19:02.542Z,26.9800
2022-08-19T00:19:13.600Z,26.9700
2022-08-19T00:19:24.783Z,26.9700
2022-08-19T00:19:35.996Z,26.9800
2022-08-19T00:19:47.023Z,26.9800
2022-08-19T00:19:58.102Z,26.9800
2022-08-19T00:20:09.262Z,26.9900
2022-08-19T00:20:20.302Z,26.9900
2022-08-19T00:20:31.342Z,26.9800
2022-08-19T00:20:42.571Z,26.9900
2022-08-19T00:20:53.743Z,26.9900
2022-08-19T00:21:04.829Z,26.9900
2022-08-19T00:21:15.915Z,26.9900
2022-08-19T00:21:27.023Z,27.0000
2022-08-19T00:21:38.223Z,27.0000
2022-08-19T00:21:49.423Z,27.0000
2022-08-19T00:22:00.468Z,27.0000
2022-08-19T00:22:11.531Z,27.0000
2022-08-19T00:22:22.633Z,27.0000
2022-08-19T00:22:33.673Z,27.0000
2022-08-19T00:22:44.783Z,27.0000
2022-08-19T00:22:55.982Z,27.0000
2022-08-19T00:23:07.033Z,27.0000
2022-08-19T00:23:18.103Z,27.0000
2022-08-19T00:23:29.263Z,27.0000
2022-08-19T00:23:40.302Z,26.9900
2022-08-19T00:23:51.344Z,26.9800
2022-08-19T00:24:02.542Z,26.9800
2022-08-19T00:24:13.613Z,26.9700
2022-08-19T00:24:24.676Z,26.9700
2022-08-19T00:24:35.823Z,26.9700
2022-08-19T00:24:50.875Z,26.9700
2022-08-19T00:25:02.387Z,26.9700
2022-08-19T00:25:13.589Z,26.9600
2022-08-19T00:25:29.953Z,26.9600
2022-08-19T00:25:41.784Z,26.9600
2022-08-19T00:25:53.291Z,26.9500
2022-08-19T00:26:04.342Z,26.9500
2022-08-19T00:26:15.572Z,26.9600
2022-08-19T00:26:26.662Z,26.9500
2022-08-19T00:26:37.748Z,26.9500
2022-08-19T00:26:48.792Z,26.9500
2022-08-19T00:27:24.895Z,26.9500
2022-08-19T00:27:26.532Z,26.9500
2022-08-19T00:27:33.743Z,26.9200
2022-08-19T00:27:44.793Z,26.9100
2022-08-19T00:27:55.853Z,26.9200
2022-08-19T00:28:06.912Z,26.9300
2022-08-19T00:28:17.983Z,26.9400
2022-08-19T00:28:29.102Z,26.9400
2022-08-19T00:28:40.172Z,26.9400
2022-08-19T00:28:51.234Z,26.9300
2022-08-19T00:29:02.274Z,26.9300
2022-08-19T00:29:13.312Z,26.9400
2022-08-19T00:29:24.453Z,26.9400
2022-08-19T00:29:35.662Z,26.9500
2022-08-19T00:29:46.871Z,26.9500
2022-08-19T00:30:03.871Z,26.9500
2022-08-19T00:30:15.023Z,26.9200
2022-08-19T00:30:26.222Z,26.9200
2022-08-19T00:30:37.423Z,26.9400
2022-08-19T00:30:48.484Z,26.9500
2022-08-19T00:30:59.503Z,26.9500
2022-08-19T00:31:11.066Z,26.9600
2022-08-19T00:31:22.223Z,26.9500
2022-08-19T00:31:33.430Z,26.9600
2022-08-19T00:31:44.625Z,26.9600
2022-08-19T00:31:55.826Z,26.9600
2022-08-19T00:32:06.874Z,26.9700
2022-08-19T00:32:21.871Z,26.9700
2022-08-19T00:32:32.943Z,26.9500
2022-08-19T00:32:45.150Z,26.9600
2022-08-19T00:32:56.224Z,26.9600
2022-08-19T00:33:07.282Z,26.9700
2022-08-19T00:33:18.383Z,26.9700
2022-08-19T00:33:29.462Z,26.9800
2022-08-19T00:33:41.824Z,26.9800
2022-08-19T00:33:52.944Z,26.9800
2022-08-19T00:34:03.993Z,26.9800
2022-08-19T00:34:15.033Z,26.9800
2022-08-19T00:34:26.223Z,26.9800
2022-08-19T00:34:37.284Z,26.9800
2022-08-19T00:34:48.349Z,26.9800
2022-08-19T00:34:59.512Z,26.9800
2022-08-19T00:35:10.612Z,26.9900
2022-08-19T00:35:21.722Z,26.9900
2022-08-19T00:35:32.782Z,26.9900
2022-08-19T00:35:43.833Z,26.9800
2022-08-19T00:35:56.258Z,26.9800
2022-08-19T00:36:07.430Z,26.9700
2022-08-19T00:36:18.473Z,26.9600
2022-08-19T00:36:29.516Z,26.9600
2022-08-19T00:36:40.622Z,26.9600
2022-08-19T00:36:51.832Z,26.9600
2022-08-19T00:37:03.024Z,26.9600
2022-08-19T00:37:14.062Z,26.9600
2022-08-19T00:37:25.110Z,26.9600
2022-08-19T00:37:36.332Z,26.9600
2022-08-19T00:37:47.504Z,26.9600
2022-08-19T00:37:58.703Z,26.9500
2022-08-19T00:38:09.917Z,26.9400
2022-08-19T00:38:34.962Z,26.9300
2022-08-19T00:38:38.376Z,26.9300
2022-08-19T00:38:49.642Z,26.9100
2022-08-19T00:39:00.788Z,26.9100
2022-08-19T00:39:11.982Z,26.9200
2022-08-19T00:39:23.072Z,26.9300
2022-08-19T00:39:34.207Z,26.9300
2022-08-19T00:39:45.313Z,26.9300
2022-08-19T00:40:00.419Z,26.9300
2022-08-19T00:40:11.587Z,26.9000
2022-08-19T00:40:22.742Z,26.9000
2022-08-19T00:40:33.802Z,26.9000
2022-08-19T00:40:44.902Z,26.9100
2022-08-19T00:40:56.112Z,26.9100
2022-08-19T00:41:07.181Z,26.9100
2022-08-19T00:41:18.246Z,26.9200
2022-08-19T00:41:29.401Z,26.9200
2022-08-19T00:41:40.457Z,26.9200
2022-08-19T00:41:51.506Z,26.9300
2022-08-19T00:42:02.565Z,26.9300
2022-08-19T00:42:15.670Z,26.9300
2022-08-19T00:42:27.026Z,26.9300
2022-08-19T00:42:38.193Z,26.9200
2022-08-19T00:42:49.407Z,26.9300
2022-08-19T00:43:00.606Z,26.9300
2022-08-19T00:43:11.803Z,26.9400
2022-08-19T00:43:22.861Z,26.9400
2022-08-19T00:43:33.922Z,26.9400
2022-08-19T00:43:44.972Z,26.9300
2022-08-19T00:43:56.041Z,26.9300
2022-08-19T00:44:07.099Z,26.9300
2022-08-19T00:44:18.163Z,26.9300
2022-08-19T00:44:29.242Z,26.9300
2022-08-19T00:44:40.314Z,26.9300
2022-08-19T00:44:51.379Z,26.9300
2022-08-19T00:45:02.524Z,26.9300
2022-08-19T00:45:13.761Z,26.9300
2022-08-19T00:45:24.811Z,26.9300
2022-08-19T00:45:36.647Z,26.9200
2022-08-19T00:45:48.012Z,26.9200
2022-08-19T00:45:59.176Z,26.9100
2022-08-19T00:46:10.226Z,26.9200
2022-08-19T00:46:21.266Z,26.9200
2022-08-19T00:46:32.457Z,26.9200
2022-08-19T00:46:43.645Z,26.9100
2022-08-19T00:46:58.012Z,26.9000
2022-08-19T00:47:11.020Z,26.9000
2022-08-19T00:47:26.585Z,26.8900
2022-08-19T00:47:38.706Z,26.8700
2022-08-19T00:47:49.761Z,26.8800
2022-08-19T00:48:00.829Z,26.8900
2022-08-19T00:48:14.812Z,26.8900
2022-08-19T00:48:26.385Z,26.9000
2022-08-19T00:48:37.594Z,26.8900
2022-08-19T00:48:48.641Z,26.8900
2022-08-19T00:48:59.711Z,26.8900
2022-08-19T00:49:10.782Z,26.9000
2022-08-19T00:49:21.832Z,26.8900
2022-08-19T00:49:32.882Z,26.8900
2022-08-19T00:49:43.955Z,26.8900
2022-08-19T00:49:55.018Z,26.8900
2022-08-19T00:50:06.201Z,26.8900
2022-08-19T00:50:17.453Z,26.9000
2022-08-19T00:50:28.502Z,26.8900
2022-08-19T00:50:39.561Z,26.8900
2022-08-19T00:50:56.618Z,26.8900
2022-08-19T00:51:07.681Z,26.8700
2022-08-19T00:51:18.762Z,26.8700
2022-08-19T00:51:29.826Z,26.8800
2022-08-19T00:51:40.872Z,26.8800
2022-08-19T00:51:51.948Z,26.8800
2022-08-19T00:52:03.001Z,26.8800
2022-08-19T00:52:14.206Z,26.8800
2022-08-19T00:52:25.406Z,26.8800
2022-08-19T00:52:36.445Z,26.8800
2022-08-19T00:52:47.555Z,26.8800
2022-08-19T00:52:58.582Z,26.8900
2022-08-19T00:53:09.615Z,26.9000
2022-08-19T00:53:22.727Z,26.9100
2022-08-19T00:53:33.762Z,26.9000
2022-08-19T00:53:44.822Z,26.9000
2022-08-19T00:53:55.871Z,26.9100
2022-08-19T00:54:06.946Z,26.9100
2022-08-19T00:54:18.045Z,26.9100
2022-08-19T00:54:31.280Z,26.9100
2022-08-19T00:54:42.387Z,26.9100
2022-08-19T00:54:53.566Z,26.9000
2022-08-19T00:55:04.784Z,26.9000
2022-08-19T00:55:15.962Z,26.9000
2022-08-19T00:55:27.049Z,26.9000
2022-08-19T00:55:38.112Z,26.9000
2022-08-19T00:55:49.245Z,26.9000
2022-08-19T00:56:02.501Z,26.9100
2022-08-19T00:56:13.567Z,26.9000
2022-08-19T00:56:24.791Z,26.9000
2022-08-19T00:56:35.858Z,26.9000
2022-08-19T00:56:46.901Z,26.9000
2022-08-19T00:56:58.058Z,26.9000
2022-08-19T00:57:09.241Z,26.9000
2022-08-19T00:57:20.442Z,26.9000
2022-08-19T00:57:31.643Z,26.9000
2022-08-19T00:57:42.843Z,26.9000
2022-08-19T00:57:54.045Z,26.8900
2022-08-19T00:58:05.257Z,26.8900
2022-08-19T00:58:16.436Z,26.8800
2022-08-19T00:58:27.657Z,26.8900
2022-08-19T00:58:38.841Z,26.8900
2022-08-19T00:58:49.898Z,26.9000
2022-08-19T00:59:00.961Z,26.9000
2022-08-19T00:59:12.121Z,26.9000
2022-08-19T00:59:56.446Z,26.9100
2022-08-19T01:00:00.499Z,26.9100
2022-08-19T01:00:02.689Z,26.8900
2022-08-19T01:00:14.220Z,26.8800
2022-08-19T01:00:25.417Z,26.8700
2022-08-19T01:00:36.643Z,26.8700
2022-08-19T01:00:47.692Z,26.8800
2022-08-19T01:00:58.764Z,26.8900
2022-08-19T01:01:09.910Z,26.8900
2022-08-19T01:01:23.426Z,26.8800
2022-08-19T01:01:34.515Z,26.8700
2022-08-19T01:01:45.646Z,26.8700
2022-08-19T01:01:56.736Z,26.8700
2022-08-19T01:02:07.814Z,26.8800
2022-08-19T01:02:19.001Z,26.8800
2022-08-19T01:02:30.208Z,26.8800
2022-08-19T01:02:41.403Z,26.8800
2022-08-19T01:02:52.764Z,26.8900
2022-08-19T01:03:03.883Z,26.8900
2022-08-19T01:03:14.932Z,26.8800
2022-08-19T01:03:25.982Z,26.8700
2022-08-19T01:03:56.491Z,26.8700
2022-08-19T01:03:57.542Z,26.8700
2022-08-19T01:04:09.725Z,26.8500
2022-08-19T01:04:20.924Z,26.8300
2022-08-19T01:04:32.125Z,26.8400
2022-08-19T01:04:43.165Z,26.8500
2022-08-19T01:04:54.214Z,26.8600
2022-08-19T01:05:05.402Z,26.8600
2022-08-19T01:05:16.605Z,26.8700
2022-08-19T01:05:27.808Z,26.8700
2022-08-19T01:05:39.032Z,26.8700
2022-08-19T01:05:50.082Z,26.8600
2022-08-19T01:06:01.142Z,26.8600
2022-08-19T01:06:12.282Z,26.8700
2022-08-19T01:06:23.489Z,26.8700
2022-08-19T01:06:34.690Z,26.8700
2022-08-19T01:06:45.887Z,26.8600
2022-08-19T01:06:57.083Z,26.8600
2022-08-19T01:07:08.130Z,26.8600
2022-08-19T01:07:19.597Z,26.8600
2022-08-19T01:07:35.753Z,26.8700
2022-08-19T01:07:48.006Z,26.8600
2022-08-19T01:07:59.168Z,26.8400
2022-08-19T01:08:10.362Z,26.8400
2022-08-19T01:08:21.565Z,26.8400
2022-08-19T01:08:32.762Z,26.8500
2022-08-19T01:08:43.965Z,26.8400
2022-08-19T01:08:55.012Z,26.8400
2022-08-19T01:09:06.064Z,26.8400
2022-08-19T01:09:17.245Z,26.8400
2022-08-19T01:09:28.442Z,26.8400
2022-08-19T01:09:39.644Z,26.8400
2022-08-19T01:09:50.854Z,26.8400
2022-08-19T01:10:02.048Z,26.8500
2022-08-19T01:10:13.254Z,26.8600
2022-08-19T01:10:24.442Z,26.8600
2022-08-19T01:10:36.927Z,26.8600
2022-08-19T01:10:48.280Z,26.8600
2022-08-19T01:10:59.321Z,26.8500
2022-08-19T01:11:10.362Z,26.8500
2022-08-19T01:11:22.737Z,26.8600
2022-08-19T01:11:33.884Z,26.8500
2022-08-19T01:11:44.921Z,26.8500
2022-08-19T01:11:55.962Z,26.8600
2022-08-19T01:12:07.170Z,26.8700
2022-08-19T01:12:18.362Z,26.8700
2022-08-19T01:12:29.571Z,26.8700
2022-08-19T01:12:40.764Z,26.8700
2022-08-19T01:12:52.011Z,26.8700
2022-08-19T01:13:03.122Z,26.8700
2022-08-19T01:13:14.162Z,26.8700
2022-08-19T01:13:25.246Z,26.8800
2022-08-19T01:13:49.375Z,26.8700
2022-08-19T01:13:53.408Z,26.8700
2022-08-19T01:14:04.606Z,26.8500
2022-08-19T01:14:15.802Z,26.8500
2022-08-19T01:14:27.007Z,26.8500
2022-08-19T01:14:38.204Z,26.8600
2022-08-19T01:14:49.251Z,26.8600
2022-08-19T01:15:00.321Z,26.8600
2022-08-19T01:15:11.488Z,26.8600
2022-08-19T01:15:22.684Z,26.8600
2022-08-19T01:15:33.885Z,26.8500
2022-08-19T01:15:44.933Z,26.8500
2022-08-19T01:15:56.001Z,26.8500
2022-08-19T01:16:07.156Z,26.8400
2022-08-19T01:16:18.370Z,26.8400
2022-08-19T01:16:29.561Z,26.8400
2022-08-19T01:16:40.763Z,26.8500
2022-08-19T01:16:51.964Z,26.8500
2022-08-19T01:17:03.009Z,26.8600
2022-08-19T01:17:14.047Z,26.8700
2022-08-19T01:17:25.100Z,26.8700
2022-08-19T01:17:36.161Z,26.8700
2022-08-19T01:17:47.203Z,26.8700
2022-08-19T01:17:58.261Z,26.8700
2022-08-19T01:18:09.401Z,26.8600
2022-08-19T01:18:20.602Z,26.8600
2022-08-19T01:18:31.808Z,26.8600
2022-08-19T01:18:43.001Z,26.8600
2022-08-19T01:18:54.199Z,26.8600
2022-08-19T01:19:05.403Z,26.8600
2022-08-19T01:19:16.606Z,26.8600
2022-08-19T01:19:27.804Z,26.8700
2022-08-19T01:19:44.087Z,26.8600
2022-08-19T01:19:55.954Z,26.8600
2022-08-19T01:20:07.170Z,26.8400
2022-08-19T01:20:18.363Z,26.8400
2022-08-19T01:20:29.412Z,26.8500
2022-08-19T01:20:40.482Z,26.8500
2022-08-19T01:20:51.551Z,26.8500
2022-08-19T01:21:03.842Z,26.8500
2022-08-19T01:21:15.007Z,26.8400
2022-08-19T01:21:26.048Z,26.8400
2022-08-19T01:21:37.086Z,26.8400
2022-08-19T01:21:48.290Z,26.8400
2022-08-19T01:21:59.484Z,26.8400
2022-08-19T01:22:16.636Z,26.8500
2022-08-19T01:22:33.300Z,26.8200
2022-08-19T01:22:44.926Z,26.8200
2022-08-19T01:22:55.971Z,26.8100
2022-08-19T01:23:07.012Z,26.8100
2022-08-19T01:23:18.206Z,26.8200
2022-08-19T01:23:29.402Z,26.8200
2022-08-19T01:23:40.610Z,26.8300
2022-08-19T01:23:51.809Z,26.8400
2022-08-19T01:24:03.011Z,26.8500
2022-08-19T01:24:14.073Z,26.8500
2022-08-19T01:24:25.131Z,26.8600
2022-08-19T01:24:36.283Z,26.8700
2022-08-19T01:24:53.249Z,26.8700
2022-08-19T01:25:08.851Z,26.8500
2022-08-19T01:25:23.367Z,26.8500
2022-08-19T01:25:37.762Z,26.8300
2022-08-19T01:25:50.572Z,26.8300
2022-08-19T01:26:01.612Z,26.8300
2022-08-19T01:26:12.702Z,26.8500
2022-08-19T01:26:23.832Z,26.8600
2022-08-19T01:26:35.006Z,26.8700
2022-08-19T01:26:48.801Z,26.8800
2022-08-19T01:27:00.049Z,26.8600
2022-08-19T01:27:11.163Z,26.8600
2022-08-19T01:27:22.369Z,26.8600
2022-08-19T01:27:35.382Z,26.8700
2022-08-19T01:27:50.532Z,26.8700
2022-08-19T01:28:10.703Z,26.8600
2022-08-19T01:28:34.223Z,26.8500
2022-08-19T01:28:40.301Z,26.8400
2022-08-19T01:28:53.616Z,26.8300
2022-08-19T01:29:05.209Z,26.8400
2022-08-19T01:29:16.653Z,26.8600
2022-08-19T01:29:27.870Z,26.8600
2022-08-19T01:29:39.372Z,26.8700
2022-08-19T01:29:52.881Z,26.8800
2022-08-19T01:30:03.973Z,26.8700
2022-08-19T01:30:15.177Z,26.8700
2022-08-19T01:30:26.368Z,26.8700
2022-08-19T01:30:37.565Z,26.8800
2022-08-19T01:30:50.922Z,26.8800
2022-08-19T01:31:07.917Z,26.8800
2022-08-19T01:31:27.329Z,26.8600
2022-08-19T01:31:36.480Z,26.8500
2022-08-19T01:31:47.643Z,26.8300
2022-08-19T01:31:58.851Z,26.8300
2022-08-19T01:32:10.046Z,26.8400
2022-08-19T01:32:33.850Z,26.8400
2022-08-19T01:32:43.965Z,26.8200
2022-08-19T01:32:55.261Z,26.8100
2022-08-19T01:33:06.371Z,26.8200
2022-08-19T01:33:17.412Z,26.8300
2022-08-19T01:33:28.482Z,26.8400
2022-08-19T01:33:39.640Z,26.8400
2022-08-19T01:33:50.846Z,26.8500
2022-08-19T01:34:02.062Z,26.8400
2022-08-19T01:34:13.242Z,26.8500
2022-08-19T01:34:24.294Z,26.8400
2022-08-19T01:34:35.362Z,26.8400
2022-08-19T01:34:46.412Z,26.8400
2022-08-19T01:34:57.512Z,26.8400
2022-08-19T01:35:08.602Z,26.8400
2022-08-19T01:35:19.648Z,26.8300
2022-08-19T01:35:30.692Z,26.8300
2022-08-19T01:35:41.756Z,26.8300
2022-08-19T01:35:52.852Z,26.8400
2022-08-19T01:36:03.955Z,26.8400
2022-08-19T01:36:15.593Z,26.8300
2022-08-19T01:36:26.711Z,26.8200
2022-08-19T01:36:37.883Z,26.8200
2022-08-19T01:36:49.088Z,26.8200
2022-08-19T01:37:00.276Z,26.8200
2022-08-19T01:37:11.490Z,26.8100
2022-08-19T01:37:24.935Z,26.8100
2022-08-19T01:37:38.402Z,26.8100
2022-08-19T01:37:49.564Z,26.7900
2022-08-19T01:38:00.774Z,26.7900
2022-08-19T01:38:11.826Z,26.7800
2022-08-19T01:38:23.550Z,26.7900
2022-08-19T01:38:35.388Z,26.7900
2022-08-19T01:38:52.343Z,26.7900
2022-08-19T01:39:03.499Z,26.7800
2022-08-19T01:39:14.563Z,26.7900
2022-08-19T01:39:25.629Z,26.8000
2022-08-19T01:39:36.717Z,26.8100
2022-08-19T01:39:47.844Z,26.8100
2022-08-19T01:39:58.987Z,26.8100
2022-08-19T01:40:10.152Z,26.8200
2022-08-19T01:40:21.236Z,26.8200
2022-08-19T01:40:32.285Z,26.8300
2022-08-19T01:40:43.351Z,26.8300
2022-08-19T01:40:54.378Z,26.8300
2022-08-19T01:41:10.902Z,26.8300
2022-08-19T01:41:22.378Z,26.8300
2022-08-19T01:41:33.485Z,26.8100
2022-08-19T01:41:44.564Z,26.8100
2022-08-19T01:41:55.658Z,26.8200
2022-08-19T01:42:06.884Z,26.8300
2022-08-19T01:42:17.949Z,26.8400
2022-08-19T01:42:30.600Z,26.8500
2022-08-19T01:42:41.771Z,26.8500
2022-08-19T01:42:53.122Z,26.8500
2022-08-19T01:43:04.263Z,26.8500
2022-08-19T01:43:15.339Z,26.8500
2022-08-19T01:43:26.397Z,26.8600
2022-08-19T01:43:37.469Z,26.8600
2022-08-19T01:44:10.398Z,26.8600
2022-08-19T01:44:17.413Z,26.8300
2022-08-19T01:44:28.330Z,26.8100
2022-08-19T01:44:39.379Z,26.7900
2022-08-19T01:44:50.450Z,26.8000
2022-08-19T01:45:01.503Z,26.8200
2022-08-19T01:45:12.567Z,26.8300
2022-08-19T01:45:23.659Z,26.8400
2022-08-19T01:45:34.738Z,26.8400
2022-08-19T01:45:45.789Z,26.8400
2022-08-19T01:45:56.849Z,26.8300
2022-08-19T01:46:07.915Z,26.8400
2022-08-19T01:46:22.092Z,26.8400
2022-08-19T01:46:36.011Z,26.8400
2022-08-19T01:46:47.178Z,26.8100
2022-08-19T01:46:58.384Z,26.8100
2022-08-19T01:47:09.579Z,26.8200
2022-08-19T01:47:20.779Z,26.8300
2022-08-19T01:47:31.820Z,26.8300
2022-08-19T01:47:42.859Z,26.8300
2022-08-19T01:48:02.323Z,26.8300
2022-08-19T01:48:13.915Z,26.8100
2022-08-19T01:48:24.968Z,26.8000
2022-08-19T01:48:36.036Z,26.8200
2022-08-19T01:48:47.098Z,26.8200
2022-08-19T01:48:58.143Z,26.8300
2022-08-19T01:49:09.259Z,26.8300
2022-08-19T01:49:20.458Z,26.8400
2022-08-19T01:49:31.677Z,26.8400
2022-08-19T01:49:42.860Z,26.8400
2022-08-19T01:49:53.917Z,26.8400
2022-08-19T01:50:04.982Z,26.8400
2022-08-19T01:50:16.139Z,26.8400
2022-08-19T01:50:27.338Z,26.8400
2022-08-19T01:50:38.379Z,26.8400
2022-08-19T01:50:49.436Z,26.8400
2022-08-19T01:51:00.609Z,26.8300
2022-08-19T01:51:11.836Z,26.8300
2022-08-19T01:51:23.020Z,26.8300
2022-08-19T01:51:39.923Z,26.8300
2022-08-19T01:51:51.204Z,26.8200
2022-08-19T01:52:02.379Z,26.7900
2022-08-19T01:52:13.579Z,26.7900
2022-08-19T01:52:24.779Z,26.8000
2022-08-19T01:52:35.979Z,26.8100
2022-08-19T01:52:47.215Z,26.8100
2022-08-19T01:53:06.909Z,26.8200
2022-08-19T01:53:19.196Z,26.8000
2022-08-19T01:53:33.817Z,26.7900
2022-08-19T01:53:45.146Z,26.8000
2022-08-19T01:53:56.982Z,26.8000
2022-08-19T01:54:08.155Z,26.8000
2022-08-19T01:54:27.277Z,26.8100
2022-08-19T01:54:36.316Z,26.8100
2022-08-19T01:54:47.517Z,26.7900
2022-08-19T01:54:58.591Z,26.7900
2022-08-19T01:55:09.688Z,26.7900
2022-08-19T01:55:20.779Z,26.7900
2022-08-19T01:55:31.979Z,26.7900
2022-08-19T01:55:43.180Z,26.7900
2022-08-19T01:55:54.235Z,26.7900
2022-08-19T01:56:05.309Z,26.8000
2022-08-19T01:56:16.404Z,26.8000
2022-08-19T01:56:27.473Z,26.8000
2022-08-19T01:56:38.510Z,26.8100
2022-08-19T01:56:49.712Z,26.8100
2022-08-19T01:57:02.221Z,26.8100
2022-08-19T01:57:13.275Z,26.8100
2022-08-19T01:57:24.319Z,26.8200
2022-08-19T01:57:35.498Z,26.8200
2022-08-19T01:57:46.546Z,26.8300
2022-08-19T01:57:57.578Z,26.8400
2022-08-19T01:58:08.650Z,26.8400
2022-08-19T01:58:19.729Z,26.8400
2022-08-19T01:58:30.769Z,26.8500
2022-08-19T01:58:41.836Z,26.8500
2022-08-19T01:58:52.957Z,26.8500
2022-08-19T01:59:04.128Z,26.8500
2022-08-19T01:59:15.218Z,26.8500
2022-08-19T01:59:26.327Z,26.8400
2022-08-19T01:59:37.386Z,26.8400
2022-08-19T01:59:48.449Z,26.8300
2022-08-19T01:59:59.498Z,26.8200
2022-08-19T02:00:10.557Z,26.8200
2022-08-19T02:00:21.629Z,26.8200
2022-08-19T02:00:32.767Z,26.8200
2022-08-19T02:00:43.967Z,26.8100
2022-08-19T02:00:55.010Z,26.8100
2022-08-19T02:01:06.084Z,26.8100
2022-08-19T02:01:17.244Z,26.8100
2022-08-19T02:01:28.339Z,26.8000
2022-08-19T02:01:42.664Z,26.8100
2022-08-19T02:01:53.825Z,26.7900
2022-08-19T02:02:04.972Z,26.7900
2022-08-19T02:02:16.022Z,26.7900
2022-08-19T02:02:27.079Z,26.7900
2022-08-19T02:02:38.128Z,26.7800
2022-08-19T02:02:49.225Z,26.7800
2022-08-19T02:03:00.299Z,26.7800
2022-08-19T02:03:11.379Z,26.7800
2022-08-19T02:03:22.446Z,26.7800
2022-08-19T02:03:33.576Z,26.7800
2022-08-19T02:03:44.648Z,26.7800
2022-08-19T02:03:56.935Z,26.7800
2022-08-19T02:04:09.140Z,26.7800
2022-08-19T02:04:20.295Z,26.7700
2022-08-19T02:04:31.336Z,26.7700
2022-08-19T02:04:42.377Z,26.7800
2022-08-19T02:04:53.437Z,26.7800
2022-08-19T02:05:04.498Z,26.7900
2022-08-19T02:05:15.648Z,26.7900
2022-08-19T02:05:26.849Z,26.7900
2022-08-19T02:05:38.047Z,26.7900
2022-08-19T02:05:49.268Z,26.7900
2022-08-19T02:06:00.449Z,26.8000
2022-08-19T02:06:11.501Z,26.8000
2022-08-19T02:06:22.557Z,26.8000
2022-08-19T02:06:38.248Z,26.8000
2022-08-19T02:06:49.419Z,26.7800
2022-08-19T02:07:00.476Z,26.7800
2022-08-19T02:07:11.612Z,26.7900
2022-08-19T02:07:22.699Z,26.7900
2022-08-19T02:07:33.913Z,26.7900
2022-08-19T02:07:45.095Z,26.7900
2022-08-19T02:07:56.129Z,26.8000
2022-08-19T02:08:07.207Z,26.8000
2022-08-19T02:08:18.368Z,26.8100
2022-08-19T02:08:29.578Z,26.8200
2022-08-19T02:08:40.655Z,26.8200
2022-08-19T02:08:51.718Z,26.8200
2022-08-19T02:09:05.417Z,26.8200
2022-08-19T02:09:16.607Z,26.8100
2022-08-19T02:09:27.808Z,26.8200
2022-08-19T02:09:39.007Z,26.8200
2022-08-19T02:09:50.207Z,26.8200
2022-08-19T02:10:01.789Z,26.8100
2022-08-19T02:10:16.659Z,26.8100
2022-08-19T02:10:28.017Z,26.8000
2022-08-19T02:10:39.169Z,26.7900
2022-08-19T02:10:50.371Z,26.8000
2022-08-19T02:11:01.418Z,26.8000
2022-08-19T02:11:12.456Z,26.8100
2022-08-19T02:11:23.658Z,26.8100
2022-08-19T02:11:34.849Z,26.8100
2022-08-19T02:11:45.888Z,26.8100
2022-08-19T02:11:56.929Z,26.8100
2022-08-19T02:12:08.127Z,26.8100
2022-08-19T02:12:19.337Z,26.8100
2022-08-19T02:12:30.388Z,26.8200
2022-08-19T02:12:42.407Z,26.8200
2022-08-19T02:12:53.884Z,26.8200
2022-08-19T02:13:05.137Z,26.8300
2022-08-19T02:13:16.956Z,26.8200
2022-08-19T02:13:33.888Z,26.8200
2022-08-19T02:13:44.948Z,26.8000
2022-08-19T02:13:55.977Z,26.8000
2022-08-19T02:14:07.168Z,26.8000
2022-08-19T02:14:18.207Z,26.8100
2022-08-19T02:14:29.248Z,26.8100
2022-08-19T02:14:40.448Z,26.8100
2022-08-19T02:14:51.498Z,26.8100
2022-08-19T02:15:02.547Z,26.8000
2022-08-19T02:15:13.729Z,26.8100
2022-08-19T02:15:24.837Z,26.8100
2022-08-19T02:15:35.918Z,26.8100
2022-08-19T02:15:46.981Z,26.8100
2022-08-19T02:15:58.014Z,26.8100
2022-08-19T02:16:09.088Z,26.8100
2022-08-19T02:16:20.156Z,26.8100
2022-08-19T02:16:31.243Z,26.8100
2022-08-19T02:16:42.288Z,26.8100
2022-08-19T02:16:53.328Z,26.8100
2022-08-19T02:17:04.448Z,26.8100
2022-08-19T02:17:15.497Z,26.8100
2022-08-19T02:17:26.598Z,26.8100
2022-08-19T02:17:37.676Z,26.8100
2022-08-19T02:17:48.734Z,26.8100
2022-08-19T02:17:59.816Z,26.8100
2022-08-19T02:18:11.010Z,26.8100
2022-08-19T02:18:22.208Z,26.8100
2022-08-19T02:18:39.168Z,26.8100
2022-08-19T02:18:50.228Z,26.7900
2022-08-19T02:19:01.258Z,26.7900
2022-08-19T02:19:12.302Z,26.7900
2022-08-19T02:19:23.369Z,26.8000
2022-08-19T02:19:34.498Z,26.8000
2022-08-19T02:19:45.537Z,26.8000
2022-08-19T02:19:56.579Z,26.8000
2022-08-19T02:20:07.619Z,26.8100
2022-08-19T02:20:18.657Z,26.8100
2022-08-19T02:20:29.857Z,26.8100
2022-08-19T02:20:41.059Z,26.8000